sensor_id;sensor_type;location;lat;lon;timestamp;pressure;altitude;pressure_sealevel;temperature;humidity
4570;BME280;2297;51.442;6.996;2023-02-12T00:01:46;102475.84;;;9.81;56.67
4570;BME280;2297;51.442;6.996;2023-02-12T00:04:13;102471.50;;;9.84;56.56
4570;BME280;2297;51.442;6.996;2023-02-12T00:06:40;102469.59;;;9.76;56.72
4570;BME280;2297;51.442;6.996;2023-02-12T00:09:07;102469.53;;;9.73;56.77
4570;BME280;2297;51.442;6.996;2023-02-12T00:11:34;102471.34;;;9.74;56.69
4570;BME280;2297;51.442;6.996;2023-02-12T00:14:01;102474.00;;;9.77;56.50
4570;BME280;2297;51.442;6.996;2023-02-12T00:16:29;102466.06;;;9.76;56.82
4570;BME280;2297;51.442;6.996;2023-02-12T00:18:57;102470.53;;;9.78;56.53
4570;BME280;2297;51.442;6.996;2023-02-12T00:21:25;102469.63;;;9.79;56.38
4570;BME280;2297;51.442;6.996;2023-02-12T00:23:51;102480.19;;;9.79;56.67
4570;BME280;2297;51.442;6.996;2023-02-12T00:26:19;102474.13;;;9.84;56.64
4570;BME280;2297;51.442;6.996;2023-02-12T00:28:46;102478.53;;;9.86;56.56
4570;BME280;2297;51.442;6.996;2023-02-12T00:31:14;102472.41;;;9.89;56.30
4570;BME280;2297;51.442;6.996;2023-02-12T00:33:42;102474.19;;;9.88;56.38
4570;BME280;2297;51.442;6.996;2023-02-12T00:36:13;102472.50;;;9.92;56.14
4570;BME280;2297;51.442;6.996;2023-02-12T00:38:41;102466.09;;;9.77;56.42
4570;BME280;2297;51.442;6.996;2023-02-12T00:41:07;102465.28;;;9.81;56.26
4570;BME280;2297;51.442;6.996;2023-02-12T00:43:34;102463.47;;;9.79;56.52
4570;BME280;2297;51.442;6.996;2023-02-12T00:46:01;102465.94;;;9.68;56.66
4570;BME280;2297;51.442;6.996;2023-02-12T00:48:27;102473.91;;;9.73;56.67
4570;BME280;2297;51.442;6.996;2023-02-12T00:50:54;102471.41;;;9.80;56.43
4570;BME280;2297;51.442;6.996;2023-02-12T00:53:22;102471.53;;;9.87;56.40
4570;BME280;2297;51.442;6.996;2023-02-12T00:55:49;102467.09;;;9.86;56.05
4570;BME280;2297;51.442;6.996;2023-02-12T00:58:16;102462.69;;;9.86;56.29
4570;BME280;2297;51.442;6.996;2023-02-12T01:00:43;102465.44;;;9.91;55.88
4570;BME280;2297;51.442;6.996;2023-02-12T01:03:10;102463.72;;;9.93;55.95
4570;BME280;2297;51.442;6.996;2023-02-12T01:05:36;102464.50;;;9.89;55.83
4570;BME280;2297;51.442;6.996;2023-02-12T01:08:03;102468.06;;;9.91;55.84
4570;BME280;2297;51.442;6.996;2023-02-12T01:10:32;102465.25;;;9.78;55.94
4570;BME280;2297;51.442;6.996;2023-02-12T01:12:59;102468.88;;;9.85;55.72
4570;BME280;2297;51.442;6.996;2023-02-12T01:15:26;102464.44;;;9.84;55.61
4570;BME280;2297;51.442;6.996;2023-02-12T01:17:52;102463.59;;;9.85;55.83
4570;BME280;2297;51.442;6.996;2023-02-12T01:20:21;102460.97;;;9.87;55.61
4570;BME280;2297;51.442;6.996;2023-02-12T01:22:49;102458.28;;;9.84;55.74
4570;BME280;2297;51.442;6.996;2023-02-12T01:25:16;102453.00;;;9.84;55.64
4570;BME280;2297;51.442;6.996;2023-02-12T01:27:44;102455.81;;;9.93;55.41
4570;BME280;2297;51.442;6.996;2023-02-12T01:30:12;102448.63;;;9.86;55.39
4570;BME280;2297;51.442;6.996;2023-02-12T01:32:39;102455.75;;;9.91;55.18
4570;BME280;2297;51.442;6.996;2023-02-12T01:35:07;102457.59;;;9.94;55.09
4570;BME280;2297;51.442;6.996;2023-02-12T01:37:35;102454.84;;;9.88;55.04
4570;BME280;2297;51.442;6.996;2023-02-12T01:40:03;102459.19;;;9.86;55.35
4570;BME280;2297;51.442;6.996;2023-02-12T01:42:29;102453.16;;;9.93;55.18
4570;BME280;2297;51.442;6.996;2023-02-12T01:48:20;102449.69;;;9.95;54.90
4570;BME280;2297;51.442;6.996;2023-02-12T01:50:49;102448.81;;;9.95;55.06
4570;BME280;2297;51.442;6.996;2023-02-12T01:53:17;102447.97;;;9.97;55.23
4570;BME280;2297;51.442;6.996;2023-02-12T01:55:47;102449.72;;;9.97;55.10
4570;BME280;2297;51.442;6.996;2023-02-12T01:58:15;102443.56;;;9.98;54.95
4570;BME280;2297;51.442;6.996;2023-02-12T02:00:43;102445.31;;;9.96;55.28
4570;BME280;2297;51.442;6.996;2023-02-12T02:03:10;102438.19;;;9.92;55.34
4570;BME280;2297;51.442;6.996;2023-02-12T02:05:43;102439.97;;;9.93;55.47
4570;BME280;2297;51.442;6.996;2023-02-12T02:08:11;102446.09;;;9.92;55.38
4570;BME280;2297;51.442;6.996;2023-02-12T02:10:38;102445.97;;;9.84;55.37
4570;BME280;2297;51.442;6.996;2023-02-12T02:13:05;102440.81;;;9.90;55.43
4570;BME280;2297;51.442;6.996;2023-02-12T02:15:56;102442.50;;;9.87;55.57
4570;BME280;2297;51.442;6.996;2023-02-12T02:18:29;102437.28;;;9.91;55.33
4570;BME280;2297;51.442;6.996;2023-02-12T02:24:15;102433.00;;;9.96;55.08
4570;BME280;2297;51.442;6.996;2023-02-12T02:30:12;102428.38;;;9.86;55.08
4570;BME280;2297;51.442;6.996;2023-02-12T02:32:42;102423.28;;;9.94;54.79
4570;BME280;2297;51.442;6.996;2023-02-12T02:35:14;102423.34;;;9.98;54.66
4570;BME280;2297;51.442;6.996;2023-02-12T02:37:48;102420.72;;;10.00;54.72
4570;BME280;2297;51.442;6.996;2023-02-12T02:40:22;102426.03;;;10.03;54.56
4570;BME280;2297;51.442;6.996;2023-02-12T02:42:54;102420.72;;;10.00;54.68
4570;BME280;2297;51.442;6.996;2023-02-12T02:45:28;102424.22;;;9.99;54.80
4570;BME280;2297;51.442;6.996;2023-02-12T02:47:59;102431.25;;;9.97;54.76
4570;BME280;2297;51.442;6.996;2023-02-12T02:50:30;102433.00;;;9.98;54.67
4570;BME280;2297;51.442;6.996;2023-02-12T02:53:02;102429.50;;;9.99;54.66
4570;BME280;2297;51.442;6.996;2023-02-12T02:55:34;102426.84;;;9.97;54.97
4570;BME280;2297;51.442;6.996;2023-02-12T02:58:06;102423.19;;;9.91;55.21
4570;BME280;2297;51.442;6.996;2023-02-12T03:00:38;102424.97;;;9.90;55.04
4570;BME280;2297;51.442;6.996;2023-02-12T03:03:09;102425.91;;;9.94;54.95
4570;BME280;2297;51.442;6.996;2023-02-12T03:05:40;102422.31;;;9.90;55.30
4570;BME280;2297;51.442;6.996;2023-02-12T03:08:12;102415.28;;;9.91;54.84
4570;BME280;2297;51.442;6.996;2023-02-12T03:10:42;102417.88;;;9.88;55.01
4570;BME280;2297;51.442;6.996;2023-02-12T03:13:15;102422.19;;;9.82;55.07
4570;BME280;2297;51.442;6.996;2023-02-12T03:15:47;102430.16;;;9.86;55.20
4570;BME280;2297;51.442;6.996;2023-02-12T03:18:18;102425.81;;;9.88;54.96
4570;BME280;2297;51.442;6.996;2023-02-12T03:20:50;102428.47;;;9.89;55.25
4570;BME280;2297;51.442;6.996;2023-02-12T03:23:23;102424.97;;;9.92;55.02
4570;BME280;2297;51.442;6.996;2023-02-12T03:25:55;102416.13;;;9.90;55.08
4570;BME280;2297;51.442;6.996;2023-02-12T03:28:26;102413.56;;;9.93;54.82
4570;BME280;2297;51.442;6.996;2023-02-12T03:31:07;102425.69;;;9.81;55.19
4570;BME280;2297;51.442;6.996;2023-02-12T03:33:43;102422.13;;;9.79;55.43
4570;BME280;2297;51.442;6.996;2023-02-12T03:36:21;102428.19;;;9.74;55.53
4570;BME280;2297;51.442;6.996;2023-02-12T03:38:53;102422.72;;;9.60;55.82
4570;BME280;2297;51.442;6.996;2023-02-12T03:41:24;102421.06;;;9.67;55.72
4570;BME280;2297;51.442;6.996;2023-02-12T03:43:56;102423.75;;;9.71;55.17
4570;BME280;2297;51.442;6.996;2023-02-12T03:46:33;102432.59;;;9.73;55.61
4570;BME280;2297;51.442;6.996;2023-02-12T03:49:07;102432.38;;;9.61;55.72
4570;BME280;2297;51.442;6.996;2023-02-12T03:51:39;102427.91;;;9.57;55.71
4570;BME280;2297;51.442;6.996;2023-02-12T03:54:08;102426.94;;;9.52;55.91
4570;BME280;2297;51.442;6.996;2023-02-12T03:56:38;102426.16;;;9.56;55.97
4570;BME280;2297;51.442;6.996;2023-02-12T03:59:07;102437.66;;;9.61;55.60
4570;BME280;2297;51.442;6.996;2023-02-12T04:01:35;102441.22;;;9.63;55.72
4570;BME280;2297;51.442;6.996;2023-02-12T04:04:05;102435.03;;;9.61;55.62
4570;BME280;2297;51.442;6.996;2023-02-12T04:06:32;102441.22;;;9.63;55.61
4570;BME280;2297;51.442;6.996;2023-02-12T04:09:02;102440.25;;;9.58;55.65
4570;BME280;2297;51.442;6.996;2023-02-12T04:11:34;102437.72;;;9.64;55.81
4570;BME280;2297;51.442;6.996;2023-02-12T04:14:14;102448.13;;;9.55;55.81
4570;BME280;2297;51.442;6.996;2023-02-12T04:16:47;102449.91;;;9.56;55.90
4570;BME280;2297;51.442;6.996;2023-02-12T04:19:21;102453.44;;;9.58;55.68
4570;BME280;2297;51.442;6.996;2023-02-12T04:21:52;102448.16;;;9.58;55.92
4570;BME280;2297;51.442;6.996;2023-02-12T04:24:30;102450.78;;;9.56;55.48
4570;BME280;2297;51.442;6.996;2023-02-12T04:27:08;102454.25;;;9.54;55.55
4570;BME280;2297;51.442;6.996;2023-02-12T04:29:41;102450.00;;;9.62;55.54
4570;BME280;2297;51.442;6.996;2023-02-12T04:32:16;102456.25;;;9.69;55.45
4570;BME280;2297;51.442;6.996;2023-02-12T04:34:49;102459.72;;;9.66;55.48
4570;BME280;2297;51.442;6.996;2023-02-12T04:37:20;102462.38;;;9.66;55.17
4570;BME280;2297;51.442;6.996;2023-02-12T04:39:48;102461.50;;;9.65;55.25
4570;BME280;2297;51.442;6.996;2023-02-12T04:42:16;102465.09;;;9.69;55.36
4570;BME280;2297;51.442;6.996;2023-02-12T04:44:43;102469.53;;;9.73;55.18
4570;BME280;2297;51.442;6.996;2023-02-12T04:47:21;102474.75;;;9.70;55.08
4570;BME280;2297;51.442;6.996;2023-02-12T04:49:47;102472.94;;;9.66;55.12
4570;BME280;2297;51.442;6.996;2023-02-12T04:52:14;102488.00;;;9.72;55.04
4570;BME280;2297;51.442;6.996;2023-02-12T04:54:41;102480.09;;;9.73;54.80
4570;BME280;2297;51.442;6.996;2023-02-12T04:57:07;102483.47;;;9.66;55.15
4570;BME280;2297;51.442;6.996;2023-02-12T04:59:34;102485.31;;;9.70;54.82
4570;BME280;2297;51.442;6.996;2023-02-12T05:02:01;102482.47;;;9.58;55.52
4570;BME280;2297;51.442;6.996;2023-02-12T05:04:29;102483.47;;;9.66;55.02
4570;BME280;2297;51.442;6.996;2023-02-12T05:06:55;102493.13;;;9.62;55.05
4570;BME280;2297;51.442;6.996;2023-02-12T05:09:22;102478.31;;;9.72;55.00
4570;BME280;2297;51.442;6.996;2023-02-12T05:11:49;102475.53;;;9.63;55.19
4570;BME280;2297;51.442;6.996;2023-02-12T05:14:15;102477.38;;;9.69;54.90
4570;BME280;2297;51.442;6.996;2023-02-12T05:16:42;102480.94;;;9.71;55.34
4570;BME280;2297;51.442;6.996;2023-02-12T05:19:08;102478.31;;;9.72;54.99
4570;BME280;2297;51.442;6.996;2023-02-12T05:21:37;102479.88;;;9.61;54.93
4570;BME280;2297;51.442;6.996;2023-02-12T05:24:04;102485.22;;;9.64;54.95
4570;BME280;2297;51.442;6.996;2023-02-12T05:26:31;102493.94;;;9.60;55.18
4570;BME280;2297;51.442;6.996;2023-02-12T05:28:58;102492.13;;;9.56;55.09
4570;BME280;2297;51.442;6.996;2023-02-12T05:31:24;102493.13;;;9.62;55.22
4570;BME280;2297;51.442;6.996;2023-02-12T05:33:51;102495.69;;;9.61;55.07
4570;BME280;2297;51.442;6.996;2023-02-12T05:36:20;102492.13;;;9.56;55.00
4570;BME280;2297;51.442;6.996;2023-02-12T05:38:48;102497.47;;;9.62;55.10
4570;BME280;2297;51.442;6.996;2023-02-12T05:41:17;102492.28;;;9.65;54.78
4570;BME280;2297;51.442;6.996;2023-02-12T05:43:44;102493.94;;;9.60;54.49
4570;BME280;2297;51.442;6.996;2023-02-12T05:46:12;102498.44;;;9.65;54.72
4570;BME280;2297;51.442;6.996;2023-02-12T05:48:39;102501.13;;;9.70;54.31
4570;BME280;2297;51.442;6.996;2023-02-12T05:51:07;102504.38;;;9.54;54.37
4570;BME280;2297;51.442;6.996;2023-02-12T05:53:35;102500.03;;;9.56;54.57
4570;BME280;2297;51.442;6.996;2023-02-12T05:56:09;102496.63;;;9.63;54.23
4570;BME280;2297;51.442;6.996;2023-02-12T05:58:36;102495.84;;;9.69;53.98
4570;BME280;2297;51.442;6.996;2023-02-12T06:01:08;102503.00;;;9.74;53.78
4570;BME280;2297;51.442;6.996;2023-02-12T06:03:35;102502.91;;;9.71;53.75
4570;BME280;2297;51.442;6.996;2023-02-12T06:06:02;102503.00;;;9.74;53.49
4570;BME280;2297;51.442;6.996;2023-02-12T06:08:29;102497.75;;;9.77;53.36
4570;BME280;2297;51.442;6.996;2023-02-12T06:10:59;102497.81;;;9.80;52.85
4570;BME280;2297;51.442;6.996;2023-02-12T06:13:27;102504.75;;;9.75;53.01
4570;BME280;2297;51.442;6.996;2023-02-12T06:15:53;102497.66;;;9.71;53.10
4570;BME280;2297;51.442;6.996;2023-02-12T06:18:20;102496.03;;;9.79;52.81
4570;BME280;2297;51.442;6.996;2023-02-12T06:20:47;102490.75;;;9.79;52.59
4570;BME280;2297;51.442;6.996;2023-02-12T06:23:13;102494.41;;;9.88;52.32
4570;BME280;2297;51.442;6.996;2023-02-12T06:25:40;102490.13;;;9.93;52.08
4570;BME280;2297;51.442;6.996;2023-02-12T06:28:06;102501.25;;;9.76;52.20
4570;BME280;2297;51.442;6.996;2023-02-12T06:30:34;102490.75;;;9.79;52.27
4570;BME280;2297;51.442;6.996;2023-02-12T06:33:01;102490.84;;;9.86;52.26
4570;BME280;2297;51.442;6.996;2023-02-12T06:35:27;102498.75;;;9.84;52.35
4570;BME280;2297;51.442;6.996;2023-02-12T06:37:55;102503.19;;;9.87;52.03
4570;BME280;2297;51.442;6.996;2023-02-12T06:40:21;102504.09;;;9.89;52.32
4570;BME280;2297;51.442;6.996;2023-02-12T06:42:48;102501.44;;;9.89;52.20
4570;BME280;2297;51.442;6.996;2023-02-12T06:45:15;102501.53;;;9.92;52.06
4570;BME280;2297;51.442;6.996;2023-02-12T06:47:42;102505.03;;;9.91;52.28
4570;BME280;2297;51.442;6.996;2023-02-12T06:50:12;102508.50;;;9.90;52.31
4570;BME280;2297;51.442;6.996;2023-02-12T06:52:38;102504.00;;;9.81;51.99
4570;BME280;2297;51.442;6.996;2023-02-12T06:55:06;102513.72;;;9.84;52.17
4570;BME280;2297;51.442;6.996;2023-02-12T06:57:32;102512.00;;;9.89;52.41
4570;BME280;2297;51.442;6.996;2023-02-12T06:59:59;102520.84;;;9.91;52.43
4570;BME280;2297;51.442;6.996;2023-02-12T07:02:25;102521.78;;;9.93;52.32
4570;BME280;2297;51.442;6.996;2023-02-12T07:04:53;102524.34;;;9.90;52.01
4570;BME280;2297;51.442;6.996;2023-02-12T07:07:20;102521.63;;;9.84;52.34
4570;BME280;2297;51.442;6.996;2023-02-12T07:09:47;102529.56;;;9.85;52.22
4570;BME280;2297;51.442;6.996;2023-02-12T07:12:14;102522.56;;;9.89;52.13
4570;BME280;2297;51.442;6.996;2023-02-12T07:14:40;102517.38;;;9.92;51.98
4570;BME280;2297;51.442;6.996;2023-02-12T07:17:07;102526.94;;;9.85;51.83
4570;BME280;2297;51.442;6.996;2023-02-12T07:19:34;102527.81;;;9.86;52.09
4570;BME280;2297;51.442;6.996;2023-02-12T07:22:02;102528.78;;;9.92;51.85
4570;BME280;2297;51.442;6.996;2023-02-12T07:24:29;102526.94;;;9.85;52.16
4570;BME280;2297;51.442;6.996;2023-02-12T07:26:55;102525.19;;;9.87;51.98
4570;BME280;2297;51.442;6.996;2023-02-12T07:29:22;102529.63;;;9.90;51.87
4570;BME280;2297;51.442;6.996;2023-02-12T07:31:49;102533.19;;;9.92;51.98
4570;BME280;2297;51.442;6.996;2023-02-12T07:34:15;102537.72;;;9.97;51.70
4570;BME280;2297;51.442;6.996;2023-02-12T07:36:42;102538.72;;;10.04;51.73
4570;BME280;2297;51.442;6.996;2023-02-12T07:39:11;102536.94;;;10.05;51.55
4570;BME280;2297;51.442;6.996;2023-02-12T07:41:37;102542.22;;;10.03;51.00
4570;BME280;2297;51.442;6.996;2023-02-12T07:44:05;102537.06;;;10.11;50.77
4570;BME280;2297;51.442;6.996;2023-02-12T07:46:34;102544.97;;;10.11;50.82
4570;BME280;2297;51.442;6.996;2023-02-12T07:49:03;102544.13;;;10.13;51.08
4570;BME280;2297;51.442;6.996;2023-02-12T07:51:33;102553.00;;;10.16;50.85
4570;BME280;2297;51.442;6.996;2023-02-12T07:54:00;102551.25;;;10.18;50.38
4570;BME280;2297;51.442;6.996;2023-02-12T07:56:29;102551.34;;;10.24;50.47
4570;BME280;2297;51.442;6.996;2023-02-12T07:58:58;102548.59;;;10.18;50.23
4570;BME280;2297;51.442;6.996;2023-02-12T08:01:26;102556.59;;;10.21;50.54
4570;BME280;2297;51.442;6.996;2023-02-12T08:03:54;102556.69;;;10.27;50.35
4570;BME280;2297;51.442;6.996;2023-02-12T08:06:24;102551.47;;;10.30;50.19
4570;BME280;2297;51.442;6.996;2023-02-12T08:08:51;102558.59;;;10.37;50.26
4570;BME280;2297;51.442;6.996;2023-02-12T08:11:19;102556.91;;;10.39;49.74
4570;BME280;2297;51.442;6.996;2023-02-12T08:13:47;102561.34;;;10.43;49.72
4570;BME280;2297;51.442;6.996;2023-02-12T08:16:15;102560.44;;;10.41;49.73
4570;BME280;2297;51.442;6.996;2023-02-12T08:18:42;102559.56;;;10.41;49.76
4570;BME280;2297;51.442;6.996;2023-02-12T08:21:11;102562.22;;;10.42;49.58
4570;BME280;2297;51.442;6.996;2023-02-12T08:23:38;102564.91;;;10.47;49.48
4570;BME280;2297;51.442;6.996;2023-02-12T08:26:08;102572.75;;;10.39;49.16
4570;BME280;2297;51.442;6.996;2023-02-12T08:28:35;102573.63;;;10.40;49.39
4570;BME280;2297;51.442;6.996;2023-02-12T08:31:07;102574.47;;;10.37;49.74
4570;BME280;2297;51.442;6.996;2023-02-12T08:33:34;102572.75;;;10.39;49.93
4570;BME280;2297;51.442;6.996;2023-02-12T08:36:02;102581.44;;;10.35;50.21
4570;BME280;2297;51.442;6.996;2023-02-12T08:38:30;102579.84;;;10.43;49.60
4570;BME280;2297;51.442;6.996;2023-02-12T08:41:00;102583.25;;;10.36;49.56
4570;BME280;2297;51.442;6.996;2023-02-12T08:43:26;102581.72;;;10.51;49.56
4570;BME280;2297;51.442;6.996;2023-02-12T08:45:53;102580.94;;;10.58;49.40
4570;BME280;2297;51.442;6.996;2023-02-12T08:48:23;102579.25;;;10.63;49.46
4570;BME280;2297;51.442;6.996;2023-02-12T08:50:49;102574.88;;;10.65;49.05
4570;BME280;2297;51.442;6.996;2023-02-12T08:53:16;102585.63;;;10.77;47.99
4570;BME280;2297;51.442;6.996;2023-02-12T08:55:47;102582.22;;;10.85;47.94
4570;BME280;2297;51.442;6.996;2023-02-12T08:58:14;102580.44;;;10.84;47.62
4570;BME280;2297;51.442;6.996;2023-02-12T09:00:40;102586.63;;;10.86;47.44
4570;BME280;2297;51.442;6.996;2023-02-12T09:03:07;102580.47;;;10.87;47.19
4570;BME280;2297;51.442;6.996;2023-02-12T09:05:38;102592.94;;;10.97;47.38
4570;BME280;2297;51.442;6.996;2023-02-12T09:08:05;102593.06;;;11.05;47.25
4570;BME280;2297;51.442;6.996;2023-02-12T09:10:32;102598.47;;;11.12;47.04
4570;BME280;2297;51.442;6.996;2023-02-12T09:12:58;102589.47;;;11.01;47.34
4570;BME280;2297;51.442;6.996;2023-02-12T09:15:25;102591.25;;;11.02;47.24
4570;BME280;2297;51.442;6.996;2023-02-12T09:17:52;102594.72;;;10.98;47.36
4570;BME280;2297;51.442;6.996;2023-02-12T09:20:18;102596.50;;;10.99;47.37
4570;BME280;2297;51.442;6.996;2023-02-12T09:22:46;102594.81;;;11.04;46.91
4570;BME280;2297;51.442;6.996;2023-02-12T09:25:13;102593.91;;;11.04;46.66
4570;BME280;2297;51.442;6.996;2023-02-12T09:27:40;102600.22;;;11.10;46.60
4570;BME280;2297;51.442;6.996;2023-02-12T09:30:07;102595.88;;;11.16;46.56
4570;BME280;2297;51.442;6.996;2023-02-12T09:32:34;102602.09;;;11.18;46.34
4570;BME280;2297;51.442;6.996;2023-02-12T09:35:01;102601.25;;;11.23;46.65
4570;BME280;2297;51.442;6.996;2023-02-12T09:37:27;102598.66;;;11.28;46.28
4570;BME280;2297;51.442;6.996;2023-02-12T09:39:55;102596.81;;;11.19;46.63
4570;BME280;2297;51.442;6.996;2023-02-12T09:42:34;102602.91;;;11.13;46.43
4570;BME280;2297;51.442;6.996;2023-02-12T09:45:10;102598.31;;;11.02;46.59
4570;BME280;2297;51.442;6.996;2023-02-12T09:47:45;102596.50;;;10.99;46.62
4570;BME280;2297;51.442;6.996;2023-02-12T09:50:33;102601.94;;;11.08;46.34
4570;BME280;2297;51.442;6.996;2023-02-12T09:53:03;102593.38;;;11.28;45.91
4570;BME280;2297;51.442;6.996;2023-02-12T09:55:33;102597.03;;;11.36;46.02
4570;BME280;2297;51.442;6.996;2023-02-12T09:58:03;102598.88;;;11.46;45.96
4570;BME280;2297;51.442;6.996;2023-02-12T10:00:35;102603.31;;;11.46;45.72
4570;BME280;2297;51.442;6.996;2023-02-12T10:03:03;102602.44;;;11.48;45.38
4570;BME280;2297;51.442;6.996;2023-02-12T10:05:36;102606.81;;;11.45;44.84
4570;BME280;2297;51.442;6.996;2023-02-12T10:08:28;102609.44;;;11.43;44.83
4570;BME280;2297;51.442;6.996;2023-02-12T10:11:16;102604.22;;;11.50;44.95
4570;BME280;2297;51.442;6.996;2023-02-12T10:13:53;102610.47;;;11.55;45.20
4570;BME280;2297;51.442;6.996;2023-02-12T10:16:35;102611.47;;;11.66;44.57
4570;BME280;2297;51.442;6.996;2023-02-12T10:19:20;102609.84;;;11.77;44.36
4570;BME280;2297;51.442;6.996;2023-02-12T10:21:56;102608.91;;;11.77;44.30
4570;BME280;2297;51.442;6.996;2023-02-12T10:24:48;102603.63;;;11.77;44.08
4570;BME280;2297;51.442;6.996;2023-02-12T10:27:26;102607.97;;;11.70;44.41
4570;BME280;2297;51.442;6.996;2023-02-12T10:29:54;102602.78;;;11.79;44.59
4570;BME280;2297;51.442;6.996;2023-02-12T10:32:27;102605.50;;;11.86;44.30
4570;BME280;2297;51.442;6.996;2023-02-12T10:34:56;102599.34;;;11.90;44.56
4570;BME280;2297;51.442;6.996;2023-02-12T10:37:29;102589.78;;;12.03;44.21
4570;BME280;2297;51.442;6.996;2023-02-12T10:40:01;102594.22;;;12.08;44.11
4570;BME280;2297;51.442;6.996;2023-02-12T10:42:36;102599.59;;;12.13;43.88
4570;BME280;2297;51.442;6.996;2023-02-12T10:45:04;102598.78;;;12.20;43.81
4570;BME280;2297;51.442;6.996;2023-02-12T10:47:31;102603.31;;;12.32;42.94
4570;BME280;2297;51.442;6.996;2023-02-12T10:49:59;102595.34;;;12.29;43.18
4570;BME280;2297;51.442;6.996;2023-02-12T10:52:34;102591.00;;;12.40;42.52
4570;BME280;2297;51.442;6.996;2023-02-12T10:55:25;102594.50;;;12.33;42.88
4570;BME280;2297;51.442;6.996;2023-02-12T10:57:54;102598.94;;;12.36;42.69
4570;BME280;2297;51.442;6.996;2023-02-12T11:00:28;102592.72;;;12.35;42.63
4570;BME280;2297;51.442;6.996;2023-02-12T11:03:01;102591.84;;;12.38;43.17
4570;BME280;2297;51.442;6.996;2023-02-12T11:05:30;102596.25;;;12.34;42.72
4570;BME280;2297;51.442;6.996;2023-02-12T11:07:57;102595.34;;;12.32;42.94
4570;BME280;2297;51.442;6.996;2023-02-12T11:10:28;102591.78;;;12.25;43.11
4570;BME280;2297;51.442;6.996;2023-02-12T11:12:57;102582.88;;;12.20;43.19
4570;BME280;2297;51.442;6.996;2023-02-12T11:15:26;102580.19;;;12.19;43.06
4570;BME280;2297;51.442;6.996;2023-02-12T11:17:58;102581.13;;;12.21;43.02
4570;BME280;2297;51.442;6.996;2023-02-12T11:20:26;102578.59;;;12.33;42.80
4570;BME280;2297;51.442;6.996;2023-02-12T11:22:55;102578.41;;;12.18;43.14
4570;BME280;2297;51.442;6.996;2023-02-12T11:25:24;102568.78;;;12.24;43.01
4570;BME280;2297;51.442;6.996;2023-02-12T11:28:15;102578.53;;;12.30;42.82
4570;BME280;2297;51.442;6.996;2023-02-12T11:30:49;102575.09;;;12.43;42.47
4570;BME280;2297;51.442;6.996;2023-02-12T11:33:23;102563.63;;;12.43;42.76
4570;BME280;2297;51.442;6.996;2023-02-12T11:35:53;102568.00;;;12.39;42.71
4570;BME280;2297;51.442;6.996;2023-02-12T11:38:23;102569.84;;;12.50;42.50
4570;BME280;2297;51.442;6.996;2023-02-12T11:40:55;102571.59;;;12.46;42.63
4570;BME280;2297;51.442;6.996;2023-02-12T11:43:24;102560.13;;;12.45;42.89
4570;BME280;2297;51.442;6.996;2023-02-12T11:45:53;102559.22;;;12.43;42.85
4570;BME280;2297;51.442;6.996;2023-02-12T11:48:25;102567.16;;;12.40;42.83
4570;BME280;2297;51.442;6.996;2023-02-12T11:50:55;102559.19;;;12.37;42.86
4570;BME280;2297;51.442;6.996;2023-02-12T11:53:25;102557.34;;;12.27;43.32
4570;BME280;2297;51.442;6.996;2023-02-12T11:55:58;102563.56;;;12.32;43.17
4570;BME280;2297;51.442;6.996;2023-02-12T11:58:28;102560.97;;;12.38;43.08
4570;BME280;2297;51.442;6.996;2023-02-12T12:01:09;102559.13;;;12.34;43.13
4570;BME280;2297;51.442;6.996;2023-02-12T12:03:44;102550.38;;;12.38;43.07
4570;BME280;2297;51.442;6.996;2023-02-12T12:06:23;102556.53;;;12.37;42.96
4570;BME280;2297;51.442;6.996;2023-02-12T12:08:55;102553.81;;;12.28;42.94
4570;BME280;2297;51.442;6.996;2023-02-12T12:11:28;102549.38;;;12.27;43.20
4570;BME280;2297;51.442;6.996;2023-02-12T12:14:02;102542.28;;;12.20;43.29
4570;BME280;2297;51.442;6.996;2023-02-12T12:16:36;102547.59;;;12.20;43.12
4570;BME280;2297;51.442;6.996;2023-02-12T12:19:25;102545.75;;;12.19;43.36
4570;BME280;2297;51.442;6.996;2023-02-12T12:22:17;102534.34;;;12.23;43.74
4570;BME280;2297;51.442;6.996;2023-02-12T12:24:52;102534.34;;;12.23;43.65
4570;BME280;2297;51.442;6.996;2023-02-12T12:27:26;102537.06;;;12.30;43.30
4570;BME280;2297;51.442;6.996;2023-02-12T12:30:21;102530.84;;;12.30;43.31
4570;BME280;2297;51.442;6.996;2023-02-12T12:32:51;102518.44;;;12.23;43.24
4570;BME280;2297;51.442;6.996;2023-02-12T12:35:24;102518.47;;;12.26;43.30
4570;BME280;2297;51.442;6.996;2023-02-12T12:37:58;102524.69;;;12.28;43.57
4570;BME280;2297;51.442;6.996;2023-02-12T12:40:46;102515.03;;;12.39;43.37
4570;BME280;2297;51.442;6.996;2023-02-12T12:43:21;102514.16;;;12.43;43.09
4570;BME280;2297;51.442;6.996;2023-02-12T12:46:13;102506.19;;;12.40;43.11
4570;BME280;2297;51.442;6.996;2023-02-12T12:49:01;102511.50;;;12.37;43.05
4570;BME280;2297;51.442;6.996;2023-02-12T12:51:59;102510.59;;;12.37;43.03
4570;BME280;2297;51.442;6.996;2023-02-12T12:54:32;102507.00;;;12.28;43.43
4570;BME280;2297;51.442;6.996;2023-02-12T12:57:08;102506.13;;;12.28;43.29
4570;BME280;2297;51.442;6.996;2023-02-12T13:00:13;102499.06;;;12.27;43.84
4570;BME280;2297;51.442;6.996;2023-02-12T13:03:26;102497.28;;;12.27;43.71
4570;BME280;2297;51.442;6.996;2023-02-12T13:06:23;102497.19;;;12.17;43.65
4570;BME280;2297;51.442;6.996;2023-02-12T13:09:02;102492.78;;;12.19;43.56
4570;BME280;2297;51.442;6.996;2023-02-12T13:11:39;102483.16;;;12.24;43.44
4570;BME280;2297;51.442;6.996;2023-02-12T13:14:24;102476.97;;;12.26;43.34
4570;BME280;2297;51.442;6.996;2023-02-12T13:16:56;102474.34;;;12.33;43.80
4570;BME280;2297;51.442;6.996;2023-02-12T13:19:35;102473.47;;;12.34;43.75
4570;BME280;2297;51.442;6.996;2023-02-12T13:22:09;102469.97;;;12.33;43.90
4570;BME280;2297;51.442;6.996;2023-02-12T13:24:42;102474.41;;;12.37;43.18
4570;BME280;2297;51.442;6.996;2023-02-12T13:27:13;102462.06;;;12.41;43.53
4570;BME280;2297;51.442;6.996;2023-02-12T13:29:44;102460.28;;;12.38;43.85
4570;BME280;2297;51.442;6.996;2023-02-12T13:32:15;102462.94;;;12.40;43.77
4570;BME280;2297;51.442;6.996;2023-02-12T13:34:47;102461.16;;;12.37;43.67
4570;BME280;2297;51.442;6.996;2023-02-12T13:37:16;102462.88;;;12.34;43.51
4570;BME280;2297;51.442;6.996;2023-02-12T13:39:47;102467.31;;;12.36;43.69
4570;BME280;2297;51.442;6.996;2023-02-12T13:42:31;102463.81;;;12.40;43.51
4570;BME280;2297;51.442;6.996;2023-02-12T13:45:13;102467.38;;;12.42;43.63
4570;BME280;2297;51.442;6.996;2023-02-12T13:47:49;102464.72;;;12.44;43.56